LTAD/ANK METAR and TAF weather

Enter ICAO airport designator
Station Type Date Time Source
LTAD METAR 2019/02/22 23:50 UTC NOAA

LTAD 222350Z 32002KT 9999 FEW040 SCT100 01/M02 Q1014 NOSIG RMK RWY29 VRB02KT


Station Type Date Time Source
LTAD Decoded METAR 2019/02/22 23:50 UTC NOAA

Ankara / Etimesgut, Turkey (LTAD) 39-57N 032-41E 806M
Feb 22, 2019 - 06:50 PM EST / 2019.02.22 2350 UTC
Wind: from the NW (320 degrees) at 2 MPH (2 KT):0
Visibility: greater than 7 mile(s):0
Sky conditions: partly cloudy
Temperature: 33 F (1 C)
Dew Point: 28 F (-2 C)
Relative Humidity: 80%
Pressure (altimeter): 29.94 in. Hg (1014 hPa)
ob: LTAD 222350Z 32002KT 9999 FEW040 SCT100 01/M02 Q1014 NOSIG RMK RWY29 VRB02KT
cycle: 0

Station Type Date Time Source
LTAD TAF UTC NOAA

Error!


Example: see airport list